This is the latest recevied weather packets stored in our database for station/object N7NKE. If no packets are shown the sender has not sent any weather packets the latest 10 day(s).
| Time | Temp. | Humidity | Pressure | Rain* | Wind** | Luminosity | Snow |
|---|---|---|---|---|---|---|---|
| 1778070905 | 12.22° C | 88% | 1019 hPa | 0 mm | - | 0 W/m² | - |
| 1778063705 | 13.89° C | 87% | 1018.2 hPa | 0 mm | - | 0 W/m² | - |
| 1778063105 | 13.89° C | 87% | 1018.2 hPa | 0 mm | - | 0 W/m² | - |
| 1778055905 | 14.44° C | 87% | 1017.6 hPa | 0 mm | - | 0 W/m² | - |
| 1778055305 | 14.44° C | 87% | 1017.6 hPa | 0 mm | - | 0 W/m² | - |
| 1778054705 | 14.44° C | 87% | 1017.6 hPa | 0 mm | - | 0 W/m² | - |
| 1778053505 | 14.44° C | 86% | 1017.3 hPa | 0 mm | - | 0 W/m² | - |
| 1778052605 | 14.44° C | 86% | 1017.2 hPa | 0 mm | - | 0 W/m² | - |
| 1778047806 | 15° C | 85% | 1016.8 hPa | 0 mm | - | 0 W/m² | - |
| 1778046305 | 15° C | 85% | 1016.8 hPa | 0 mm | - | 0 W/m² | - |
| 1778044505 | 15° C | 83% | 1016.6 hPa | 0 mm | - | 0 W/m² | - |
| 1778038805 | 15° C | 82% | 1015.8 hPa | 0 mm | - | 0 W/m² | - |
| 1778028605 | 18.89° C | 68% | 1015.1 hPa | 0 mm | - | 327 W/m² | - |
| 1778026205 | 19.44° C | 68% | 1015.3 hPa | 0 mm | - | 506 W/m² | - |
| 1778023204 | 18.33° C | 72% | 1015.8 hPa | 0 mm | - | 459 W/m² | - |
| 1778019306 | 17.22° C | 73% | 1016.1 hPa | 0 mm | - | 330 W/m² | - |
| 1778019005 | 17.22° C | 72% | 1016.1 hPa | 0 mm | - | 336 W/m² | - |
| 1778018704 | 17.22° C | 73% | 1016.1 hPa | 0 mm | - | 309 W/m² | - |
| 1778016005 | 16.67° C | 76% | 1016.3 hPa | 0 mm | - | 475 W/m² | - |
| 1778014205 | 16.11° C | 75% | 1016.5 hPa | 0 mm | - | 819 W/m² | - |
| 1778012404 | 15.56° C | 78% | 1016.7 hPa | 0 mm | - | 478 W/m² | - |
| 1778011205 | 15° C | 79% | 1016.9 hPa | 0 mm | - | 318 W/m² | - |
| 1778008205 | 15° C | 81% | 1016.9 hPa | 0 mm | - | 272 W/m² | - |
| 1778007005 | 13.89° C | 84% | 1016.8 hPa | 0 mm | - | 220 W/m² | - |
| 1778005805 | 13.89° C | 84% | 1016.7 hPa | 0 mm | - | 206 W/m² | - |
* Rain latest hour (hover to see other rain measurements)
** Current wind speed in m/s (hover to see current wind gust speed)